sensor_id;sensor_type;location;lat;lon;timestamp;P1;durP1;ratioP1;P2;durP2;ratioP2
5285;SDS011;2665;53.112;7.358;2024-02-15T00:00:39;20.67;;;9.70;;
5285;SDS011;2665;53.112;7.358;2024-02-15T00:03:05;12.27;;;8.33;;
5285;SDS011;2665;53.112;7.358;2024-02-15T00:05:32;16.57;;;8.97;;
5285;SDS011;2665;53.112;7.358;2024-02-15T00:08:01;23.03;;;10.13;;
5285;SDS011;2665;53.112;7.358;2024-02-15T00:10:27;15.33;;;9.43;;
5285;SDS011;2665;53.112;7.358;2024-02-15T00:12:53;17.63;;;9.67;;
5285;SDS011;2665;53.112;7.358;2024-02-15T00:15:18;18.77;;;8.83;;
5285;SDS011;2665;53.112;7.358;2024-02-15T00:17:44;19.47;;;11.33;;
5285;SDS011;2665;53.112;7.358;2024-02-15T00:20:12;23.57;;;9.97;;
5285;SDS011;2665;53.112;7.358;2024-02-15T00:22:38;16.90;;;10.00;;
5285;SDS011;2665;53.112;7.358;2024-02-15T00:25:06;26.30;;;8.83;;
5285;SDS011;2665;53.112;7.358;2024-02-15T00:27:34;17.53;;;9.90;;
5285;SDS011;2665;53.112;7.358;2024-02-15T00:30:03;18.60;;;10.10;;
5285;SDS011;2665;53.112;7.358;2024-02-15T00:32:32;22.20;;;10.07;;
5285;SDS011;2665;53.112;7.358;2024-02-15T00:34:58;20.37;;;11.13;;
5285;SDS011;2665;53.112;7.358;2024-02-15T00:37:24;17.27;;;10.50;;
5285;SDS011;2665;53.112;7.358;2024-02-15T00:39:50;21.40;;;10.43;;
5285;SDS011;2665;53.112;7.358;2024-02-15T00:42:15;19.77;;;11.50;;
5285;SDS011;2665;53.112;7.358;2024-02-15T00:44:41;23.50;;;11.40;;
5285;SDS011;2665;53.112;7.358;2024-02-15T00:47:09;19.47;;;11.03;;
5285;SDS011;2665;53.112;7.358;2024-02-15T00:49:35;21.83;;;11.03;;
5285;SDS011;2665;53.112;7.358;2024-02-15T00:52:01;19.17;;;10.70;;
5285;SDS011;2665;53.112;7.358;2024-02-15T00:54:26;21.07;;;9.40;;
5285;SDS011;2665;53.112;7.358;2024-02-15T00:56:52;21.93;;;11.27;;
5285;SDS011;2665;53.112;7.358;2024-02-15T00:59:18;17.33;;;10.60;;
5285;SDS011;2665;53.112;7.358;2024-02-15T01:01:43;20.60;;;11.10;;
5285;SDS011;2665;53.112;7.358;2024-02-15T01:04:09;18.23;;;10.00;;
5285;SDS011;2665;53.112;7.358;2024-02-15T01:06:35;28.23;;;10.80;;
5285;SDS011;2665;53.112;7.358;2024-02-15T01:09:01;29.23;;;11.37;;
5285;SDS011;2665;53.112;7.358;2024-02-15T01:11:28;20.60;;;10.23;;
5285;SDS011;2665;53.112;7.358;2024-02-15T01:13:57;19.87;;;11.17;;
5285;SDS011;2665;53.112;7.358;2024-02-15T01:16:23;23.17;;;12.07;;
5285;SDS011;2665;53.112;7.358;2024-02-15T01:18:49;27.53;;;11.50;;
5285;SDS011;2665;53.112;7.358;2024-02-15T01:21:15;19.90;;;10.13;;
5285;SDS011;2665;53.112;7.358;2024-02-15T01:23:42;21.70;;;11.50;;
5285;SDS011;2665;53.112;7.358;2024-02-15T01:26:08;20.47;;;9.53;;
5285;SDS011;2665;53.112;7.358;2024-02-15T01:28:33;23.80;;;9.77;;
5285;SDS011;2665;53.112;7.358;2024-02-15T01:30:59;18.37;;;9.47;;
5285;SDS011;2665;53.112;7.358;2024-02-15T01:33:25;20.80;;;9.73;;
5285;SDS011;2665;53.112;7.358;2024-02-15T01:35:51;20.90;;;8.30;;
5285;SDS011;2665;53.112;7.358;2024-02-15T01:38:17;22.47;;;9.17;;
5285;SDS011;2665;53.112;7.358;2024-02-15T01:40:43;17.30;;;8.50;;
5285;SDS011;2665;53.112;7.358;2024-02-15T01:43:08;18.60;;;9.27;;
5285;SDS011;2665;53.112;7.358;2024-02-15T01:45:34;20.50;;;9.50;;
5285;SDS011;2665;53.112;7.358;2024-02-15T01:48:01;29.73;;;9.70;;
5285;SDS011;2665;53.112;7.358;2024-02-15T01:50:28;22.67;;;9.63;;
5285;SDS011;2665;53.112;7.358;2024-02-15T01:52:57;17.57;;;8.80;;
5285;SDS011;2665;53.112;7.358;2024-02-15T01:55:24;18.30;;;8.57;;
5285;SDS011;2665;53.112;7.358;2024-02-15T01:57:50;20.97;;;8.33;;
5285;SDS011;2665;53.112;7.358;2024-02-15T02:00:17;16.40;;;9.67;;
5285;SDS011;2665;53.112;7.358;2024-02-15T02:02:44;16.57;;;7.80;;
5285;SDS011;2665;53.112;7.358;2024-02-15T02:05:10;14.13;;;7.00;;
5285;SDS011;2665;53.112;7.358;2024-02-15T02:07:37;13.47;;;8.00;;
5285;SDS011;2665;53.112;7.358;2024-02-15T02:10:03;20.50;;;7.10;;
5285;SDS011;2665;53.112;7.358;2024-02-15T02:12:29;19.50;;;8.07;;
5285;SDS011;2665;53.112;7.358;2024-02-15T02:14:55;11.97;;;6.90;;
5285;SDS011;2665;53.112;7.358;2024-02-15T02:17:21;14.93;;;6.93;;
5285;SDS011;2665;53.112;7.358;2024-02-15T02:19:47;14.63;;;7.90;;
5285;SDS011;2665;53.112;7.358;2024-02-15T02:22:17;11.67;;;7.07;;
5285;SDS011;2665;53.112;7.358;2024-02-15T02:24:53;15.17;;;7.17;;
5285;SDS011;2665;53.112;7.358;2024-02-15T02:27:29;12.13;;;7.07;;
5285;SDS011;2665;53.112;7.358;2024-02-15T02:29:56;12.90;;;6.40;;
5285;SDS011;2665;53.112;7.358;2024-02-15T02:32:24;17.60;;;7.87;;
5285;SDS011;2665;53.112;7.358;2024-02-15T02:34:51;12.73;;;7.50;;
5285;SDS011;2665;53.112;7.358;2024-02-15T02:37:25;13.43;;;6.90;;
5285;SDS011;2665;53.112;7.358;2024-02-15T02:39:51;12.67;;;7.07;;
5285;SDS011;2665;53.112;7.358;2024-02-15T02:42:17;14.60;;;6.40;;
5285;SDS011;2665;53.112;7.358;2024-02-15T02:44:43;16.40;;;6.67;;
5285;SDS011;2665;53.112;7.358;2024-02-15T02:47:08;14.03;;;7.20;;
5285;SDS011;2665;53.112;7.358;2024-02-15T02:49:37;14.33;;;7.13;;
5285;SDS011;2665;53.112;7.358;2024-02-15T02:52:03;18.63;;;7.63;;
5285;SDS011;2665;53.112;7.358;2024-02-15T02:54:29;11.17;;;6.63;;
5285;SDS011;2665;53.112;7.358;2024-02-15T02:56:55;16.83;;;7.03;;
5285;SDS011;2665;53.112;7.358;2024-02-15T02:59:21;16.70;;;7.87;;
5285;SDS011;2665;53.112;7.358;2024-02-15T03:01:47;16.13;;;6.83;;
5285;SDS011;2665;53.112;7.358;2024-02-15T03:04:16;11.03;;;6.60;;
5285;SDS011;2665;53.112;7.358;2024-02-15T03:06:42;13.63;;;7.33;;
5285;SDS011;2665;53.112;7.358;2024-02-15T03:09:12;14.23;;;7.27;;
5285;SDS011;2665;53.112;7.358;2024-02-15T03:11:39;12.70;;;6.93;;
5285;SDS011;2665;53.112;7.358;2024-02-15T03:14:05;13.10;;;6.67;;
5285;SDS011;2665;53.112;7.358;2024-02-15T03:16:31;13.03;;;6.60;;
5285;SDS011;2665;53.112;7.358;2024-02-15T03:18:57;13.20;;;7.80;;
5285;SDS011;2665;53.112;7.358;2024-02-15T03:21:23;17.53;;;7.53;;
5285;SDS011;2665;53.112;7.358;2024-02-15T03:23:48;14.50;;;7.97;;
5285;SDS011;2665;53.112;7.358;2024-02-15T03:26:14;14.20;;;7.70;;
5285;SDS011;2665;53.112;7.358;2024-02-15T03:28:39;11.40;;;6.30;;
5285;SDS011;2665;53.112;7.358;2024-02-15T03:31:05;11.90;;;6.43;;
5285;SDS011;2665;53.112;7.358;2024-02-15T03:33:31;15.07;;;6.80;;
5285;SDS011;2665;53.112;7.358;2024-02-15T03:36:00;15.20;;;7.13;;
5285;SDS011;2665;53.112;7.358;2024-02-15T03:38:26;15.53;;;7.07;;
5285;SDS011;2665;53.112;7.358;2024-02-15T03:40:54;15.00;;;6.63;;
5285;SDS011;2665;53.112;7.358;2024-02-15T03:43:20;16.63;;;7.10;;
5285;SDS011;2665;53.112;7.358;2024-02-15T03:45:46;11.30;;;7.47;;
5285;SDS011;2665;53.112;7.358;2024-02-15T03:48:12;19.47;;;7.80;;
5285;SDS011;2665;53.112;7.358;2024-02-15T03:50:37;15.70;;;7.10;;
5285;SDS011;2665;53.112;7.358;2024-02-15T03:53:03;15.47;;;6.60;;
5285;SDS011;2665;53.112;7.358;2024-02-15T03:55:29;11.30;;;5.80;;
5285;SDS011;2665;53.112;7.358;2024-02-15T03:57:55;10.03;;;7.27;;
5285;SDS011;2665;53.112;7.358;2024-02-15T04:00:22;8.53;;;6.40;;
5285;SDS011;2665;53.112;7.358;2024-02-15T04:02:49;12.97;;;7.07;;
5285;SDS011;2665;53.112;7.358;2024-02-15T04:05:15;12.60;;;7.57;;
5285;SDS011;2665;53.112;7.358;2024-02-15T04:07:43;11.40;;;6.97;;
5285;SDS011;2665;53.112;7.358;2024-02-15T04:10:10;14.90;;;6.47;;
5285;SDS011;2665;53.112;7.358;2024-02-15T04:12:36;10.63;;;6.77;;
5285;SDS011;2665;53.112;7.358;2024-02-15T04:15:02;16.77;;;7.77;;
5285;SDS011;2665;53.112;7.358;2024-02-15T04:17:37;12.70;;;6.73;;
5285;SDS011;2665;53.112;7.358;2024-02-15T04:20:07;10.27;;;6.40;;
5285;SDS011;2665;53.112;7.358;2024-02-15T04:22:34;18.63;;;6.23;;
5285;SDS011;2665;53.112;7.358;2024-02-15T04:25:05;18.47;;;7.77;;
5285;SDS011;2665;53.112;7.358;2024-02-15T04:27:34;14.70;;;7.20;;
5285;SDS011;2665;53.112;7.358;2024-02-15T04:30:01;13.07;;;7.20;;
5285;SDS011;2665;53.112;7.358;2024-02-15T04:32:29;19.70;;;7.63;;
5285;SDS011;2665;53.112;7.358;2024-02-15T04:34:58;18.40;;;8.00;;
5285;SDS011;2665;53.112;7.358;2024-02-15T04:37:24;16.63;;;8.80;;
5285;SDS011;2665;53.112;7.358;2024-02-15T04:39:52;18.57;;;9.00;;
5285;SDS011;2665;53.112;7.358;2024-02-15T04:42:17;22.13;;;9.80;;
5285;SDS011;2665;53.112;7.358;2024-02-15T04:44:43;20.60;;;8.50;;
5285;SDS011;2665;53.112;7.358;2024-02-15T04:47:09;23.03;;;10.70;;
5285;SDS011;2665;53.112;7.358;2024-02-15T04:49:35;17.80;;;8.80;;
5285;SDS011;2665;53.112;7.358;2024-02-15T04:52:04;14.47;;;8.50;;
5285;SDS011;2665;53.112;7.358;2024-02-15T04:54:31;18.50;;;9.63;;
5285;SDS011;2665;53.112;7.358;2024-02-15T04:56:57;20.50;;;8.90;;
5285;SDS011;2665;53.112;7.358;2024-02-15T04:59:23;19.20;;;8.63;;
5285;SDS011;2665;53.112;7.358;2024-02-15T05:01:54;14.30;;;8.83;;
5285;SDS011;2665;53.112;7.358;2024-02-15T05:04:21;16.90;;;10.03;;
5285;SDS011;2665;53.112;7.358;2024-02-15T05:06:49;24.57;;;8.60;;
5285;SDS011;2665;53.112;7.358;2024-02-15T05:09:15;19.40;;;10.70;;
5285;SDS011;2665;53.112;7.358;2024-02-15T05:11:43;27.63;;;11.00;;
5285;SDS011;2665;53.112;7.358;2024-02-15T05:14:15;20.43;;;11.10;;
5285;SDS011;2665;53.112;7.358;2024-02-15T05:16:48;20.93;;;11.37;;
5285;SDS011;2665;53.112;7.358;2024-02-15T05:19:17;15.60;;;10.70;;
5285;SDS011;2665;53.112;7.358;2024-02-15T05:21:43;23.00;;;11.50;;
5285;SDS011;2665;53.112;7.358;2024-02-15T05:24:27;20.23;;;10.33;;
5285;SDS011;2665;53.112;7.358;2024-02-15T05:26:53;22.70;;;11.63;;
5285;SDS011;2665;53.112;7.358;2024-02-15T05:29:20;30.17;;;10.50;;
5285;SDS011;2665;53.112;7.358;2024-02-15T05:31:46;21.33;;;11.20;;
5285;SDS011;2665;53.112;7.358;2024-02-15T05:34:11;25.47;;;11.27;;
5285;SDS011;2665;53.112;7.358;2024-02-15T05:36:37;15.07;;;9.67;;
5285;SDS011;2665;53.112;7.358;2024-02-15T05:39:03;21.73;;;9.97;;
5285;SDS011;2665;53.112;7.358;2024-02-15T05:41:30;19.77;;;10.80;;
5285;SDS011;2665;53.112;7.358;2024-02-15T05:43:57;16.23;;;9.07;;
5285;SDS011;2665;53.112;7.358;2024-02-15T05:46:24;17.30;;;9.83;;
5285;SDS011;2665;53.112;7.358;2024-02-15T05:48:50;18.67;;;10.87;;
5285;SDS011;2665;53.112;7.358;2024-02-15T05:51:16;18.73;;;9.60;;
5285;SDS011;2665;53.112;7.358;2024-02-15T05:53:42;20.23;;;10.13;;
5285;SDS011;2665;53.112;7.358;2024-02-15T05:56:09;17.67;;;12.10;;
5285;SDS011;2665;53.112;7.358;2024-02-15T05:58:38;17.50;;;10.60;;
5285;SDS011;2665;53.112;7.358;2024-02-15T06:01:07;20.53;;;11.00;;
5285;SDS011;2665;53.112;7.358;2024-02-15T06:03:35;19.73;;;12.03;;
5285;SDS011;2665;53.112;7.358;2024-02-15T06:06:05;26.27;;;11.83;;
5285;SDS011;2665;53.112;7.358;2024-02-15T06:08:34;22.07;;;10.57;;
5285;SDS011;2665;53.112;7.358;2024-02-15T06:11:00;28.13;;;11.83;;
5285;SDS011;2665;53.112;7.358;2024-02-15T06:13:29;22.33;;;11.87;;
5285;SDS011;2665;53.112;7.358;2024-02-15T06:15:56;18.40;;;11.50;;
5285;SDS011;2665;53.112;7.358;2024-02-15T06:18:22;24.33;;;11.90;;
5285;SDS011;2665;53.112;7.358;2024-02-15T06:20:56;23.17;;;11.77;;
5285;SDS011;2665;53.112;7.358;2024-02-15T06:23:24;17.90;;;9.73;;
5285;SDS011;2665;53.112;7.358;2024-02-15T06:25:52;16.70;;;11.70;;
5285;SDS011;2665;53.112;7.358;2024-02-15T06:28:19;21.67;;;11.50;;
5285;SDS011;2665;53.112;7.358;2024-02-15T06:31:08;20.23;;;11.87;;
5285;SDS011;2665;53.112;7.358;2024-02-15T06:33:53;18.80;;;11.33;;
5285;SDS011;2665;53.112;7.358;2024-02-15T06:39:33;25.03;;;11.80;;
5285;SDS011;2665;53.112;7.358;2024-02-15T06:42:10;21.20;;;11.90;;
5285;SDS011;2665;53.112;7.358;2024-02-15T06:44:41;19.97;;;10.90;;
5285;SDS011;2665;53.112;7.358;2024-02-15T06:47:10;20.40;;;11.70;;
5285;SDS011;2665;53.112;7.358;2024-02-15T06:49:39;19.77;;;12.00;;
5285;SDS011;2665;53.112;7.358;2024-02-15T06:52:08;24.80;;;14.40;;
5285;SDS011;2665;53.112;7.358;2024-02-15T06:54:36;18.93;;;10.73;;
5285;SDS011;2665;53.112;7.358;2024-02-15T06:57:05;30.30;;;12.27;;
5285;SDS011;2665;53.112;7.358;2024-02-15T06:59:32;19.80;;;11.73;;
5285;SDS011;2665;53.112;7.358;2024-02-15T07:01:58;19.83;;;12.50;;
5285;SDS011;2665;53.112;7.358;2024-02-15T07:04:24;26.20;;;11.03;;
5285;SDS011;2665;53.112;7.358;2024-02-15T07:06:53;18.50;;;11.70;;
5285;SDS011;2665;53.112;7.358;2024-02-15T07:09:23;19.97;;;12.67;;
5285;SDS011;2665;53.112;7.358;2024-02-15T07:11:52;19.83;;;11.30;;
5285;SDS011;2665;53.112;7.358;2024-02-15T07:14:18;22.00;;;11.90;;
5285;SDS011;2665;53.112;7.358;2024-02-15T07:16:48;20.77;;;11.57;;
5285;SDS011;2665;53.112;7.358;2024-02-15T07:19:15;18.40;;;12.10;;
5285;SDS011;2665;53.112;7.358;2024-02-15T07:21:41;14.23;;;10.00;;
5285;SDS011;2665;53.112;7.358;2024-02-15T07:24:07;18.10;;;10.73;;
5285;SDS011;2665;53.112;7.358;2024-02-15T07:26:34;17.50;;;12.40;;
5285;SDS011;2665;53.112;7.358;2024-02-15T07:29:01;21.93;;;11.43;;
5285;SDS011;2665;53.112;7.358;2024-02-15T07:31:30;21.60;;;12.17;;
5285;SDS011;2665;53.112;7.358;2024-02-15T07:33:58;14.60;;;10.10;;
5285;SDS011;2665;53.112;7.358;2024-02-15T07:36:24;24.50;;;10.93;;
5285;SDS011;2665;53.112;7.358;2024-02-15T07:38:51;15.33;;;10.93;;
5285;SDS011;2665;53.112;7.358;2024-02-15T07:41:18;21.47;;;11.80;;
5285;SDS011;2665;53.112;7.358;2024-02-15T07:43:51;18.90;;;9.90;;
5285;SDS011;2665;53.112;7.358;2024-02-15T07:46:20;17.03;;;9.80;;
5285;SDS011;2665;53.112;7.358;2024-02-15T07:48:47;14.53;;;10.90;;
5285;SDS011;2665;53.112;7.358;2024-02-15T07:51:16;21.63;;;10.63;;
5285;SDS011;2665;53.112;7.358;2024-02-15T07:53:45;23.07;;;11.03;;
5285;SDS011;2665;53.112;7.358;2024-02-15T07:56:12;25.67;;;12.00;;
5285;SDS011;2665;53.112;7.358;2024-02-15T07:58:42;17.10;;;9.90;;
5285;SDS011;2665;53.112;7.358;2024-02-15T08:01:12;20.33;;;11.00;;
5285;SDS011;2665;53.112;7.358;2024-02-15T08:03:39;13.30;;;8.83;;
5285;SDS011;2665;53.112;7.358;2024-02-15T08:06:09;13.60;;;9.73;;
5285;SDS011;2665;53.112;7.358;2024-02-15T08:08:37;19.83;;;10.20;;
5285;SDS011;2665;53.112;7.358;2024-02-15T08:11:07;13.10;;;9.40;;
5285;SDS011;2665;53.112;7.358;2024-02-15T08:13:40;18.40;;;9.10;;
5285;SDS011;2665;53.112;7.358;2024-02-15T08:16:08;14.40;;;8.47;;
5285;SDS011;2665;53.112;7.358;2024-02-15T08:18:33;17.50;;;9.90;;
5285;SDS011;2665;53.112;7.358;2024-02-15T08:21:00;14.30;;;8.30;;
5285;SDS011;2665;53.112;7.358;2024-02-15T08:23:26;17.40;;;9.20;;
5285;SDS011;2665;53.112;7.358;2024-02-15T08:25:52;11.73;;;8.80;;
5285;SDS011;2665;53.112;7.358;2024-02-15T08:28:18;14.03;;;9.10;;
5285;SDS011;2665;53.112;7.358;2024-02-15T08:30:45;18.00;;;9.30;;
5285;SDS011;2665;53.112;7.358;2024-02-15T08:33:12;17.07;;;9.53;;
5285;SDS011;2665;53.112;7.358;2024-02-15T08:35:38;19.80;;;9.10;;
5285;SDS011;2665;53.112;7.358;2024-02-15T08:38:05;15.80;;;9.90;;
5285;SDS011;2665;53.112;7.358;2024-02-15T08:40:32;10.37;;;7.73;;
5285;SDS011;2665;53.112;7.358;2024-02-15T08:42:57;22.63;;;10.60;;
5285;SDS011;2665;53.112;7.358;2024-02-15T08:45:23;17.80;;;9.80;;
5285;SDS011;2665;53.112;7.358;2024-02-15T08:47:49;17.60;;;9.47;;
5285;SDS011;2665;53.112;7.358;2024-02-15T08:50:17;13.27;;;8.30;;
5285;SDS011;2665;53.112;7.358;2024-02-15T08:52:44;16.87;;;8.80;;
5285;SDS011;2665;53.112;7.358;2024-02-15T08:55:10;14.27;;;7.67;;
5285;SDS011;2665;53.112;7.358;2024-02-15T08:57:39;15.77;;;8.73;;
5285;SDS011;2665;53.112;7.358;2024-02-15T09:00:06;20.83;;;8.73;;
5285;SDS011;2665;53.112;7.358;2024-02-15T09:02:38;16.50;;;8.20;;
5285;SDS011;2665;53.112;7.358;2024-02-15T09:05:10;13.00;;;8.20;;
5285;SDS011;2665;53.112;7.358;2024-02-15T09:07:39;12.93;;;7.90;;
5285;SDS011;2665;53.112;7.358;2024-02-15T09:10:12;16.23;;;7.97;;
5285;SDS011;2665;53.112;7.358;2024-02-15T09:12:44;12.50;;;7.60;;
5285;SDS011;2665;53.112;7.358;2024-02-15T09:15:14;11.90;;;7.13;;
5285;SDS011;2665;53.112;7.358;2024-02-15T09:17:40;10.70;;;6.97;;
5285;SDS011;2665;53.112;7.358;2024-02-15T09:20:09;18.10;;;7.90;;
5285;SDS011;2665;53.112;7.358;2024-02-15T09:25:12;9.80;;;6.23;;
5285;SDS011;2665;53.112;7.358;2024-02-15T09:27:38;12.43;;;6.10;;
5285;SDS011;2665;53.112;7.358;2024-02-15T09:30:06;13.47;;;8.30;;
5285;SDS011;2665;53.112;7.358;2024-02-15T09:32:34;10.90;;;6.10;;
5285;SDS011;2665;53.112;7.358;2024-02-15T09:35:03;10.20;;;5.90;;
5285;SDS011;2665;53.112;7.358;2024-02-15T09:37:33;10.87;;;6.30;;
5285;SDS011;2665;53.112;7.358;2024-02-15T09:40:08;10.67;;;6.23;;
5285;SDS011;2665;53.112;7.358;2024-02-15T09:42:35;15.93;;;6.70;;
5285;SDS011;2665;53.112;7.358;2024-02-15T09:45:02;9.83;;;5.70;;
5285;SDS011;2665;53.112;7.358;2024-02-15T09:47:35;12.63;;;5.53;;
5285;SDS011;2665;53.112;7.358;2024-02-15T09:50:02;12.43;;;6.73;;
5285;SDS011;2665;53.112;7.358;2024-02-15T09:52:31;10.43;;;5.93;;
5285;SDS011;2665;53.112;7.358;2024-02-15T09:55:01;12.53;;;6.10;;
5285;SDS011;2665;53.112;7.358;2024-02-15T09:57:28;9.63;;;6.43;;
5285;SDS011;2665;53.112;7.358;2024-02-15T09:59:56;10.93;;;7.10;;
5285;SDS011;2665;53.112;7.358;2024-02-15T10:02:23;12.17;;;6.60;;
5285;SDS011;2665;53.112;7.358;2024-02-15T10:04:49;8.90;;;6.47;;
5285;SDS011;2665;53.112;7.358;2024-02-15T10:07:15;12.60;;;5.73;;
5285;SDS011;2665;53.112;7.358;2024-02-15T10:09:43;8.67;;;5.57;;
5285;SDS011;2665;53.112;7.358;2024-02-15T10:12:09;10.50;;;5.90;;
5285;SDS011;2665;53.112;7.358;2024-02-15T10:14:35;9.10;;;5.77;;
5285;SDS011;2665;53.112;7.358;2024-02-15T10:17:07;11.23;;;5.73;;
5285;SDS011;2665;53.112;7.358;2024-02-15T10:19:39;9.10;;;5.30;;
5285;SDS011;2665;53.112;7.358;2024-02-15T10:22:07;8.37;;;6.00;;
5285;SDS011;2665;53.112;7.358;2024-02-15T10:24:34;7.40;;;6.47;;
5285;SDS011;2665;53.112;7.358;2024-02-15T10:27:02;7.13;;;4.80;;
5285;SDS011;2665;53.112;7.358;2024-02-15T10:29:35;10.10;;;5.50;;
5285;SDS011;2665;53.112;7.358;2024-02-15T10:32:02;9.77;;;5.27;;
5285;SDS011;2665;53.112;7.358;2024-02-15T10:34:35;7.30;;;4.50;;
5285;SDS011;2665;53.112;7.358;2024-02-15T10:37:10;6.80;;;5.17;;
5285;SDS011;2665;53.112;7.358;2024-02-15T10:39:40;9.30;;;5.87;;
5285;SDS011;2665;53.112;7.358;2024-02-15T10:42:06;15.10;;;5.60;;
5285;SDS011;2665;53.112;7.358;2024-02-15T10:44:32;7.40;;;5.23;;
5285;SDS011;2665;53.112;7.358;2024-02-15T10:47:01;10.53;;;6.27;;
5285;SDS011;2665;53.112;7.358;2024-02-15T10:49:31;10.67;;;4.20;;
5285;SDS011;2665;53.112;7.358;2024-02-15T10:51:59;6.13;;;4.50;;
5285;SDS011;2665;53.112;7.358;2024-02-15T10:57:11;9.83;;;4.70;;
5285;SDS011;2665;53.112;7.358;2024-02-15T10:59:39;6.87;;;4.47;;
5285;SDS011;2665;53.112;7.358;2024-02-15T11:02:26;6.60;;;5.27;;
5285;SDS011;2665;53.112;7.358;2024-02-15T11:05:05;4.87;;;4.20;;
5285;SDS011;2665;53.112;7.358;2024-02-15T11:07:35;7.73;;;4.93;;
5285;SDS011;2665;53.112;7.358;2024-02-15T11:10:02;8.53;;;4.50;;
5285;SDS011;2665;53.112;7.358;2024-02-15T11:12:33;7.00;;;4.40;;
5285;SDS011;2665;53.112;7.358;2024-02-15T11:14:59;5.30;;;4.00;;
5285;SDS011;2665;53.112;7.358;2024-02-15T11:20:05;5.00;;;3.70;;
5285;SDS011;2665;53.112;7.358;2024-02-15T11:22:37;4.50;;;4.00;;
5285;SDS011;2665;53.112;7.358;2024-02-15T11:25:04;5.30;;;3.70;;
5285;SDS011;2665;53.112;7.358;2024-02-15T11:27:33;5.07;;;3.67;;
5285;SDS011;2665;53.112;7.358;2024-02-15T11:30:02;4.03;;;3.63;;
5285;SDS011;2665;53.112;7.358;2024-02-15T11:32:49;4.90;;;3.73;;
5285;SDS011;2665;53.112;7.358;2024-02-15T11:43:06;4.60;;;2.83;;
5285;SDS011;2665;53.112;7.358;2024-02-15T11:45:34;5.50;;;3.50;;
5285;SDS011;2665;53.112;7.358;2024-02-15T11:48:09;3.70;;;3.10;;
5285;SDS011;2665;53.112;7.358;2024-02-15T11:50:37;7.37;;;3.37;;
5285;SDS011;2665;53.112;7.358;2024-02-15T11:53:07;3.70;;;3.40;;
5285;SDS011;2665;53.112;7.358;2024-02-15T11:55:37;4.20;;;3.10;;
5285;SDS011;2665;53.112;7.358;2024-02-15T11:58:04;4.20;;;3.00;;
5285;SDS011;2665;53.112;7.358;2024-02-15T12:00:41;4.90;;;3.60;;
5285;SDS011;2665;53.112;7.358;2024-02-15T12:03:26;3.90;;;3.43;;
5285;SDS011;2665;53.112;7.358;2024-02-15T12:06:10;4.20;;;3.63;;
5285;SDS011;2665;53.112;7.358;2024-02-15T12:08:55;3.23;;;2.70;;
5285;SDS011;2665;53.112;7.358;2024-02-15T12:11:39;2.80;;;2.17;;
5285;SDS011;2665;53.112;7.358;2024-02-15T12:14:24;3.17;;;2.83;;
5285;SDS011;2665;53.112;7.358;2024-02-15T12:17:09;4.33;;;2.30;;
5285;SDS011;2665;53.112;7.358;2024-02-15T12:19:55;3.03;;;2.40;;
5285;SDS011;2665;53.112;7.358;2024-02-15T12:22:31;4.40;;;2.70;;
5285;SDS011;2665;53.112;7.358;2024-02-15T12:25:02;4.20;;;2.80;;
5285;SDS011;2665;53.112;7.358;2024-02-15T12:27:40;3.37;;;2.50;;
5285;SDS011;2665;53.112;7.358;2024-02-15T12:30:09;3.67;;;2.37;;
5285;SDS011;2665;53.112;7.358;2024-02-15T12:32:50;3.30;;;1.70;;
5285;SDS011;2665;53.112;7.358;2024-02-15T12:35:17;3.03;;;2.20;;
5285;SDS011;2665;53.112;7.358;2024-02-15T12:37:45;2.70;;;2.10;;
5285;SDS011;2665;53.112;7.358;2024-02-15T12:40:12;3.60;;;2.77;;
5285;SDS011;2665;53.112;7.358;2024-02-15T12:42:42;2.37;;;1.90;;
5285;SDS011;2665;53.112;7.358;2024-02-15T12:45:15;2.50;;;1.73;;
5285;SDS011;2665;53.112;7.358;2024-02-15T12:47:55;6.10;;;1.67;;
5285;SDS011;2665;53.112;7.358;2024-02-15T12:50:28;2.80;;;1.70;;
5285;SDS011;2665;53.112;7.358;2024-02-15T12:52:55;2.47;;;1.80;;
5285;SDS011;2665;53.112;7.358;2024-02-15T12:55:27;3.53;;;2.30;;
5285;SDS011;2665;53.112;7.358;2024-02-15T12:57:56;5.77;;;2.50;;
5285;SDS011;2665;53.112;7.358;2024-02-15T13:00:25;2.50;;;1.80;;
5285;SDS011;2665;53.112;7.358;2024-02-15T13:02:57;2.43;;;1.97;;
5285;SDS011;2665;53.112;7.358;2024-02-15T13:05:24;2.33;;;1.53;;
5285;SDS011;2665;53.112;7.358;2024-02-15T13:07:51;2.30;;;1.83;;
5285;SDS011;2665;53.112;7.358;2024-02-15T13:10:20;2.53;;;1.83;;
5285;SDS011;2665;53.112;7.358;2024-02-15T13:12:46;2.20;;;1.50;;
5285;SDS011;2665;53.112;7.358;2024-02-15T13:15:13;3.30;;;1.80;;
5285;SDS011;2665;53.112;7.358;2024-02-15T13:17:43;2.50;;;1.80;;
5285;SDS011;2665;53.112;7.358;2024-02-15T13:20:10;2.87;;;1.80;;
5285;SDS011;2665;53.112;7.358;2024-02-15T13:22:42;3.37;;;2.10;;
5285;SDS011;2665;53.112;7.358;2024-02-15T13:25:12;2.83;;;1.60;;
5285;SDS011;2665;53.112;7.358;2024-02-15T13:27:41;4.13;;;2.17;;
5285;SDS011;2665;53.112;7.358;2024-02-15T13:30:08;2.70;;;1.90;;
5285;SDS011;2665;53.112;7.358;2024-02-15T13:32:38;2.90;;;2.03;;
5285;SDS011;2665;53.112;7.358;2024-02-15T13:35:08;3.00;;;2.27;;
5285;SDS011;2665;53.112;7.358;2024-02-15T13:37:46;2.83;;;2.13;;
5285;SDS011;2665;53.112;7.358;2024-02-15T13:40:12;2.97;;;2.07;;
5285;SDS011;2665;53.112;7.358;2024-02-15T13:42:42;2.80;;;1.80;;
5285;SDS011;2665;53.112;7.358;2024-02-15T13:45:24;4.50;;;2.03;;
5285;SDS011;2665;53.112;7.358;2024-02-15T13:47:57;2.53;;;1.77;;
5285;SDS011;2665;53.112;7.358;2024-02-15T13:50:24;2.87;;;1.90;;
5285;SDS011;2665;53.112;7.358;2024-02-15T13:52:50;3.83;;;1.97;;
5285;SDS011;2665;53.112;7.358;2024-02-15T13:55:16;3.17;;;2.27;;
5285;SDS011;2665;53.112;7.358;2024-02-15T13:57:44;2.60;;;1.90;;
5285;SDS011;2665;53.112;7.358;2024-02-15T14:00:12;11.93;;;2.30;;
5285;SDS011;2665;53.112;7.358;2024-02-15T14:05:18;2.43;;;1.83;;
5285;SDS011;2665;53.112;7.358;2024-02-15T14:07:49;5.27;;;2.93;;
5285;SDS011;2665;53.112;7.358;2024-02-15T14:10:17;3.00;;;1.93;;
5285;SDS011;2665;53.112;7.358;2024-02-15T14:12:46;2.73;;;1.80;;
5285;SDS011;2665;53.112;7.358;2024-02-15T14:15:26;6.63;;;2.20;;
5285;SDS011;2665;53.112;7.358;2024-02-15T14:17:52;11.27;;;2.60;;
5285;SDS011;2665;53.112;7.358;2024-02-15T14:20:18;3.57;;;2.17;;
5285;SDS011;2665;53.112;7.358;2024-02-15T14:22:46;3.73;;;2.50;;
5285;SDS011;2665;53.112;7.358;2024-02-15T14:25:23;3.47;;;2.30;;
5285;SDS011;2665;53.112;7.358;2024-02-15T14:27:49;4.37;;;2.57;;
5285;SDS011;2665;53.112;7.358;2024-02-15T14:30:14;4.23;;;2.80;;
5285;SDS011;2665;53.112;7.358;2024-02-15T14:32:59;5.73;;;3.10;;
5285;SDS011;2665;53.112;7.358;2024-02-15T14:35:25;3.30;;;2.53;;
5285;SDS011;2665;53.112;7.358;2024-02-15T14:37:51;3.03;;;2.60;;
5285;SDS011;2665;53.112;7.358;2024-02-15T14:40:17;6.73;;;3.07;;
5285;SDS011;2665;53.112;7.358;2024-02-15T14:42:44;4.53;;;2.50;;
5285;SDS011;2665;53.112;7.358;2024-02-15T14:45:10;5.70;;;2.60;;
5285;SDS011;2665;53.112;7.358;2024-02-15T14:47:37;2.97;;;2.50;;
5285;SDS011;2665;53.112;7.358;2024-02-15T14:50:03;7.80;;;3.00;;
5285;SDS011;2665;53.112;7.358;2024-02-15T14:52:33;5.00;;;2.83;;
5285;SDS011;2665;53.112;7.358;2024-02-15T14:55:02;7.83;;;3.33;;
5285;SDS011;2665;53.112;7.358;2024-02-15T14:57:30;5.00;;;3.30;;
5285;SDS011;2665;53.112;7.358;2024-02-15T14:59:57;3.70;;;3.00;;
5285;SDS011;2665;53.112;7.358;2024-02-15T15:02:23;6.33;;;2.43;;
5285;SDS011;2665;53.112;7.358;2024-02-15T15:04:49;7.10;;;3.30;;
5285;SDS011;2665;53.112;7.358;2024-02-15T15:07:34;3.80;;;3.00;;
5285;SDS011;2665;53.112;7.358;2024-02-15T15:10:18;3.80;;;3.00;;
5285;SDS011;2665;53.112;7.358;2024-02-15T15:13:02;4.43;;;2.97;;
5285;SDS011;2665;53.112;7.358;2024-02-15T15:15:28;4.00;;;2.80;;
5285;SDS011;2665;53.112;7.358;2024-02-15T15:17:54;4.47;;;2.70;;
5285;SDS011;2665;53.112;7.358;2024-02-15T15:20:20;5.90;;;2.80;;
5285;SDS011;2665;53.112;7.358;2024-02-15T15:22:46;6.27;;;3.33;;
5285;SDS011;2665;53.112;7.358;2024-02-15T15:25:12;5.80;;;3.60;;
5285;SDS011;2665;53.112;7.358;2024-02-15T15:27:37;6.43;;;3.10;;
5285;SDS011;2665;53.112;7.358;2024-02-15T15:30:05;4.10;;;3.47;;
5285;SDS011;2665;53.112;7.358;2024-02-15T15:32:31;6.60;;;3.57;;